Houston, Alaska
Current Conditions -  °F | °C
As of 4:16 AM on Sunday 23 Nov 2014 (Local Time) from PAWS Reporting Station
Broken Clouds Broken Clouds  
Wind Chill: 30°   Ceiling: 5500
Heat Index: 30°   Visibility: 10mi
Dew Point: 19°   Wind: 0mph
Humidity: 64%   Direction: NA
Pressure: 29.32"   Gusts: NA
Location:  61.63°N, 149.82°W
Report Text: PAWS 231316Z AUTO 00000KT 10SM FEW022 BKN055 BKN070 M01/M07 A2932 RMK AO1 P0001
Loading
Personal Weather Stations






























Interactive Weather Map New forecast layout! Learn more

10-Day Weather Forecast

Advertisements
Track Severe Weather on mobile